Time;durP1;ratioP1;P1;durP2;ratioP2;P2;SDS_P1;SDS_P2;PMS_P1;PMS_P2;Temp;Humidity;BMP_temperature;BMP_pressure;BME280_temperature;BME280_humidity;BME280_pressure;Samples;Min_cycle;Max_cycle;Signal;HPM_P1;HPM_P2
2023/05/02 00:09:27;;;;;;;19.10;7.87;;;10.10;99.90;;;;;;20993445;28;20044;-77
2023/05/02 00:19:28;;;;;;;12.25;7.07;;;10.10;99.90;;;;;;20992378;28;20487;-76
2023/05/02 00:29:29;;;;;;;14.90;5.70;;;10.10;99.90;;;;;;20992080;28;20324;-76
2023/05/02 00:39:30;;;;;;;7.83;5.20;;;10.20;99.90;;;;;;20990677;28;20107;-77
2023/05/02 00:49:31;;;;;;;13.53;6.33;;;10.30;99.90;;;;;;20991020;28;20510;-76
2023/05/02 00:59:35;;;;;;;11.17;5.87;;;10.00;99.90;;;;;;20990123;28;20036;-76
2023/05/02 01:09:47;;;;;;;11.68;5.45;;;10.00;99.90;;;;;;20990158;28;20028;-76
2023/05/02 01:19:53;;;;;;;6.82;5.05;;;10.00;99.90;;;;;;20929493;28;20029;-76
2023/05/02 01:29:56;;;;;;;18.00;7.30;;;9.90;99.90;;;;;;20906699;28;20037;-76
2023/05/02 01:39:59;;;;;;;27.83;7.20;;;9.90;99.90;;;;;;20904330;28;20029;-76
2023/05/02 01:50:02;;;;;;;10.15;6.28;;;9.50;99.90;;;;;;20904082;28;20036;-77
2023/05/02 02:00:05;;;;;;;12.93;6.93;;;9.60;99.90;;;;;;20919489;28;20491;-76
2023/05/02 02:10:13;;;;;;;8.70;5.90;;;9.70;99.90;;;;;;20920471;28;20452;-76
2023/05/02 02:20:16;;;;;;;9.57;6.35;;;9.90;99.90;;;;;;20919232;28;20029;-76
2023/05/02 02:30:17;;;;;;;8.15;5.20;;;9.80;99.90;;;;;;20985027;28;20098;-77
2023/05/02 02:40:48;;;;;;;8.77;5.43;;;9.90;99.90;;;;;;21000322;28;20041;-76
2023/05/02 02:51:12;;;;;;;7.60;4.80;;;9.60;99.90;;;;;;20999743;28;20048;-76
2023/05/02 03:01:21;;;;;;;8.60;5.55;;;9.60;99.90;;;;;;20997127;28;20101;-76
2023/05/02 03:11:22;;;;;;;13.90;5.50;;;9.80;99.90;;;;;;21018102;22;20073;-76
2023/05/02 03:21:23;;;;;;;10.30;5.80;;;9.60;99.90;;;;;;20995857;28;20024;-76
2023/05/02 03:31:24;;;;;;;;;;;9.50;99.90;;;;;;20993199;28;20107;-76
2023/05/02 03:41:25;;;;;;;8.00;5.05;;;9.60;99.90;;;;;;20988762;28;19912;-76
2023/05/02 03:51:33;;;;;;;17.23;6.03;;;9.80;99.90;;;;;;20991378;28;20409;-77
2023/05/02 04:01:34;;;;;;;11.90;6.30;;;9.80;99.90;;;;;;20993765;28;20048;-77
2023/05/02 04:11:36;;;;;;;10.95;5.75;;;9.90;99.90;;;;;;21005727;28;20047;-75
2023/05/02 04:21:39;;;;;;;11.63;6.38;;;10.00;99.90;;;;;;20991048;28;20025;-77
2023/05/02 04:31:41;;;;;;;12.45;6.38;;;10.10;99.90;;;;;;20990563;28;20410;-76
2023/05/02 04:41:43;;;;;;;15.90;9.63;;;10.10;99.90;;;;;;20989684;28;20025;-77
2023/05/02 04:51:44;;;;;;;19.07;9.73;;;10.20;99.90;;;;;;20990631;28;20042;-76
2023/05/02 05:01:46;;;;;;;11.80;7.55;;;10.40;99.90;;;;;;20990413;28;20052;-76
2023/05/02 05:11:47;;;;;;;11.43;7.37;;;10.40;99.90;;;;;;20971906;28;20028;-76
2023/05/02 05:21:49;;;;;;;18.38;8.73;;;10.40;99.90;;;;;;20988219;28;20697;-76
2023/05/02 05:31:52;;;;;;;14.95;8.93;;;10.50;99.90;;;;;;20989083;28;20028;-77
2023/05/02 05:41:56;;;;;;;14.23;7.60;;;10.50;99.90;;;;;;21003958;28;20525;-77
2023/05/02 05:51:59;;;;;;;13.77;7.65;;;10.70;99.90;;;;;;21004085;28;20024;-76
2023/05/02 06:02:00;;;;;;;13.93;8.68;;;10.80;99.90;;;;;;21002654;28;20025;-76
2023/05/02 06:12:01;;;;;;;15.77;9.73;;;10.90;99.90;;;;;;21002504;28;20391;-76
2023/05/02 06:22:04;;;;;;;14.88;9.40;;;10.90;99.90;;;;;;21002486;28;20111;-77
2023/05/02 06:32:05;;;;;;;13.53;8.63;;;11.00;99.90;;;;;;21000879;28;20059;-76
2023/05/02 06:42:06;;;;;;;13.93;8.03;;;11.20;99.90;;;;;;21000755;28;20028;-76
2023/05/02 06:52:08;;;;;;;15.05;7.70;;;11.40;99.90;;;;;;20998743;28;20048;-75
2023/05/02 07:02:08;;;;;;;15.27;9.47;;;11.60;99.90;;;;;;20997981;28;20086;-75
2023/05/02 07:12:09;;;;;;;15.43;9.17;;;11.60;99.90;;;;;;20998601;28;20116;-75
2023/05/02 07:22:10;;;;;;;14.37;8.63;;;11.80;99.90;;;;;;20996386;28;20089;-75
2023/05/02 07:32:11;;;;;;;11.93;7.73;;;11.60;99.90;;;;;;20995297;28;20402;-75
2023/05/02 07:42:12;;;;;;;13.23;7.10;;;12.00;99.90;;;;;;20996144;28;20028;-76
2023/05/02 07:52:12;;;;;;;8.83;5.80;;;13.00;99.90;;;;;;20977166;28;20032;-76
2023/05/02 08:02:13;;;;;;;10.93;6.10;;;14.00;99.90;;;;;;20994494;28;20032;-76
2023/05/02 08:12:14;;;;;;;6.80;5.47;;;14.20;99.90;;;;;;20994082;28;20123;-76
2023/05/02 08:22:15;;;;;;;12.70;5.10;;;14.30;99.90;;;;;;20993873;28;20372;-77
2023/05/02 08:32:16;;;;;;;10.13;5.23;;;15.20;99.90;;;;;;20993350;28;20631;-76
2023/05/02 08:42:17;;;;;;;7.23;5.27;;;15.60;99.90;;;;;;20992009;28;20044;-76
2023/05/02 08:52:19;;;;;;;9.73;5.37;;;15.60;99.90;;;;;;20991318;28;20038;-77
2023/05/02 09:12:31;;;;;;;5.87;4.77;;;16.70;99.90;;;;;;20903499;28;20582;-76
2023/05/02 09:22:33;;;;;;;6.87;4.23;;;17.00;99.90;;;;;;20906844;28;20091;-76
2023/05/02 09:32:47;;;;;;;5.35;3.95;;;16.10;99.90;;;;;;20906829;28;20487;-76
2023/05/02 09:42:48;;;;;;;7.53;4.10;;;17.50;99.90;;;;;;20923470;28;20058;-76
2023/05/02 09:53:06;;;;;;;7.67;4.30;;;17.50;99.90;;;;;;20969967;28;20037;-77
2023/05/02 10:03:07;;;;;;;5.90;4.00;;;17.70;99.90;;;;;;20980778;28;20111;-76
2023/05/02 10:13:08;;;;;;;;;;;17.00;99.90;;;;;;20989950;28;20490;-76
2023/05/02 10:23:10;;;;;;;6.90;3.95;;;16.80;99.90;;;;;;21002158;28;19959;-76
2023/05/02 10:33:12;;;;;;;;;;;16.50;99.90;;;;;;21001639;28;20037;-76
2023/05/02 10:43:15;;;;;;;4.80;4.23;;;16.70;99.90;;;;;;20942646;28;19916;-76
2023/05/02 10:53:23;;;;;;;5.75;3.80;;;17.70;99.90;;;;;;20916498;28;20511;-76
2023/05/02 11:03:56;;;;;;;5.72;3.72;;;19.10;99.90;;;;;;20915190;28;20482;-76
2023/05/02 11:13:57;;;;;;;6.65;4.18;;;18.20;99.90;;;;;;20985180;28;20040;-77
2023/05/02 11:24:35;;;;;;;7.40;5.23;;;18.00;99.90;;;;;;20997418;28;20067;-76
2023/05/02 11:34:41;;;;;;;7.28;4.63;;;18.10;99.90;;;;;;20996617;28;20441;-76
2023/05/02 11:44:58;;;;;;;2.90;1.70;;;18.80;99.90;;;;;;20996000;28;20371;-75
2023/05/02 11:54:59;;;;;;;1.98;1.23;;;21.00;99.90;;;;;;20994950;28;20119;-76
2023/05/02 12:05:01;;;;;;;3.80;1.13;;;19.00;99.90;;;;;;20975046;28;20109;-75
2023/05/02 12:15:07;;;;;;;1.65;1.38;;;18.70;99.90;;;;;;20992115;28;20040;-77
2023/05/02 12:25:08;;;;;;;2.25;1.30;;;17.80;99.90;;;;;;20990707;28;20038;-77
2023/05/02 12:35:21;;;;;;;2.38;1.98;;;18.40;99.90;;;;;;20989533;28;20390;-78
2023/05/02 12:45:22;;;;;;;3.75;2.08;;;20.50;99.90;;;;;;20991597;28;20043;-78
2023/05/02 12:55:26;;;;;;;2.60;1.77;;;20.70;99.90;;;;;;20991098;28;20036;-77
2023/05/02 13:05:26;;;;;;;2.30;1.73;;;21.90;99.90;;;;;;20989259;28;20055;-77
2023/05/02 13:15:28;;;;;;;4.70;1.80;;;20.40;99.90;;;;;;20987799;28;20068;-77
2023/05/02 13:25:29;;;;;;;6.30;2.13;;;20.10;99.90;;;;;;20987480;28;20029;-78
2023/05/02 13:35:30;;;;;;;3.20;1.97;;;21.50;99.90;;;;;;20988998;28;20418;-77
2023/05/02 13:45:31;;;;;;;5.00;2.57;;;20.60;99.90;;;;;;20989589;28;20111;-77
2023/05/02 13:55:32;;;;;;;2.87;2.37;;;19.80;99.90;;;;;;21002302;28;20040;-76
2023/05/02 14:05:32;;;;;;;1.90;1.67;;;17.90;99.90;;;;;;20983996;28;20510;-76
2023/05/02 14:15:33;;;;;;;3.00;2.00;;;17.60;99.90;;;;;;20998859;28;20059;-77
2023/05/02 14:25:35;;;;;;;3.23;1.90;;;17.00;99.90;;;;;;21001947;28;20363;-76
2023/05/02 14:35:36;;;;;;;2.10;1.80;;;16.90;99.90;;;;;;21001300;28;20025;-76
2023/05/02 14:45:37;;;;;;;3.43;2.60;;;18.40;99.90;;;;;;20968435;28;20054;-76
2023/05/02 14:55:40;;;;;;;2.13;1.40;;;18.70;99.90;;;;;;20986626;28;20107;-77
2023/05/02 15:05:41;;;;;;;3.67;2.10;;;18.50;99.90;;;;;;20918154;28;20677;-76
2023/05/02 15:15:45;;;;;;;4.93;2.07;;;17.80;99.90;;;;;;20913411;28;20094;-76
2023/05/02 15:25:46;;;;;;;3.65;1.85;;;15.20;99.90;;;;;;20913779;28;20468;-78
2023/05/02 15:35:57;;;;;;;3.50;1.40;;;15.90;99.90;;;;;;20914525;28;20040;-76
2023/05/02 15:45:59;;;;;;;2.65;1.23;;;16.50;99.90;;;;;;20910959;28;20037;-76
2023/05/02 15:55:59;;;;;;;2.17;1.38;;;15.80;99.90;;;;;;20887785;22;20507;-75
2023/05/02 16:06:04;;;;;;;2.27;1.43;;;15.20;99.90;;;;;;20829620;28;20057;-75
2023/05/02 16:16:27;;;;;;;2.60;1.42;;;15.50;99.90;;;;;;20801711;28;20045;-75
2023/05/02 16:26:28;;;;;;;2.20;1.40;;;15.00;99.90;;;;;;20622120;28;20053;-75
2023/05/02 16:36:30;;;;;;;3.87;1.83;;;15.20;99.90;;;;;;20646680;28;20046;-75
2023/05/02 16:46:31;;;;;;;11.20;4.18;;;15.60;99.90;;;;;;20653523;28;20096;-75
2023/05/02 16:56:32;;;;;;;2.93;2.27;;;15.60;99.90;;;;;;20658870;28;20432;-76
2023/05/02 17:06:33;;;;;;;7.50;1.73;;;15.60;99.90;;;;;;20808920;28;20060;-75
2023/05/02 17:16:34;;;;;;;3.20;1.80;;;15.50;99.90;;;;;;20790886;28;20035;-75
2023/05/02 17:26:34;;;;;;;2.20;1.40;;;15.20;99.90;;;;;;20804934;28;20030;-76
2023/05/02 17:36:35;;;;;;;3.13;1.70;;;14.80;99.90;;;;;;20808483;28;20029;-75
2023/05/02 17:46:36;;;;;;;2.43;1.80;;;14.60;99.90;;;;;;20806331;28;20503;-77
2023/05/02 17:56:37;;;;;;;2.70;1.83;;;14.90;99.90;;;;;;20830051;28;20037;-77
2023/05/02 18:06:38;;;;;;;6.27;1.97;;;14.90;99.90;;;;;;20846116;28;20029;-78
2023/05/02 18:16:40;;;;;;;20.90;8.00;;;14.30;99.90;;;;;;20836808;28;20036;-78
2023/05/02 18:26:41;;;;;;;4.22;2.30;;;14.20;99.90;;;;;;20792730;28;20091;-75
2023/05/02 18:36:43;;;;;;;4.13;1.87;;;14.00;99.90;;;;;;20829520;28;20053;-76
2023/05/02 18:46:44;;;;;;;2.85;2.20;;;13.40;99.90;;;;;;20817986;28;20032;-77
2023/05/02 18:56:45;;;;;;;3.53;2.63;;;12.60;99.90;;;;;;20820494;28;20104;-75
2023/05/02 19:06:46;;;;;;;3.20;2.70;;;12.70;99.90;;;;;;20818421;28;20437;-78
2023/05/02 19:16:48;;;;;;;6.07;2.87;;;12.10;99.90;;;;;;20818691;28;20033;-77
2023/05/02 19:26:49;;;;;;;4.38;2.88;;;12.10;99.90;;;;;;20822699;28;20045;-78
2023/05/02 19:36:50;;;;;;;3.57;2.47;;;12.10;99.90;;;;;;20793577;28;20079;-77
2023/05/02 19:46:50;;;;;;;10.00;3.50;;;11.80;99.90;;;;;;20823519;28;20122;-77
2023/05/02 19:56:51;;;;;;;6.10;3.27;;;10.80;99.90;;;;;;20827984;28;20060;-77
2023/05/02 20:06:52;;;;;;;5.17;2.83;;;11.00;99.90;;;;;;20806638;28;20037;-77
2023/05/02 20:16:57;;;;;;;6.97;2.80;;;10.30;99.90;;;;;;20831677;28;20087;-77
2023/05/02 20:26:58;;;;;;;4.70;2.38;;;10.50;99.90;;;;;;20822668;28;20104;-77
2023/05/02 20:37:00;;;;;;;6.50;3.30;;;10.80;99.90;;;;;;20826859;28;20025;-77
2023/05/02 20:47:04;;;;;;;4.10;2.90;;;10.80;99.90;;;;;;20820042;28;20102;-77
2023/05/02 20:57:04;;;;;;;11.68;4.13;;;10.70;99.90;;;;;;20792228;28;20042;-77
2023/05/02 21:07:05;;;;;;;5.37;4.03;;;10.60;99.90;;;;;;20819369;28;20574;-77
2023/05/02 21:17:06;;;;;;;7.27;5.13;;;10.70;99.90;;;;;;20759750;28;20041;-76
2023/05/02 21:27:07;;;;;;;12.17;6.83;;;9.90;99.90;;;;;;20759045;28;20057;-77
2023/05/02 21:37:08;;;;;;;11.50;7.27;;;9.70;99.90;;;;;;20811512;28;20388;-76
2023/05/02 21:47:09;;;;;;;10.63;6.93;;;9.60;99.90;;;;;;20744559;28;20097;-77
2023/05/02 21:57:10;;;;;;;10.97;6.83;;;9.40;99.90;;;;;;20917529;22;20522;-77
2023/05/02 22:07:11;;;;;;;9.33;6.00;;;9.40;99.90;;;;;;20989384;28;20036;-76
2023/05/02 22:17:12;;;;;;;12.45;6.10;;;9.50;99.90;;;;;;21063078;28;20289;-77
2023/05/02 22:27:13;;;;;;;9.77;6.22;;;9.60;99.90;;;;;;21083277;28;20028;-77
2023/05/02 22:37:14;;;;;;;10.50;5.90;;;9.70;99.90;;;;;;21059442;28;20032;-77
2023/05/02 22:47:15;;;;;;;10.67;5.43;;;9.70;99.90;;;;;;21000549;28;20071;-77
2023/05/02 22:57:16;;;;;;;;;;;9.60;99.90;;;;;;21063791;28;20043;-77
2023/05/02 23:07:16;;;;;;;13.73;5.17;;;9.40;99.90;;;;;;21078393;28;19908;-77
2023/05/02 23:17:17;;;;;;;9.83;5.97;;;9.50;99.90;;;;;;21078333;28;20077;-77
2023/05/02 23:27:18;;;;;;;10.80;5.93;;;9.40;99.90;;;;;;21075630;28;20397;-77
2023/05/02 23:37:20;;;;;;;10.00;6.10;;;9.30;99.90;;;;;;21054335;28;20033;-76
2023/05/02 23:47:21;;;;;;;10.43;5.45;;;9.20;99.90;;;;;;21022355;28;20024;-77
2023/05/02 23:57:22;;;;;;;12.10;5.90;;;8.60;99.90;;;;;;21076399;28;20088;-77
